createdAt,value
2023-02-17T00:00:50.685Z,88.12
2023-02-17T00:01:50.668Z,88.12
2023-02-17T00:02:50.622Z,88.36
2023-02-17T00:03:50.670Z,88.01
2023-02-17T00:04:50.683Z,88.12
2023-02-17T00:05:51.139Z,88.16
2023-02-17T00:06:50.583Z,88.16
2023-02-17T00:07:50.596Z,88.32
2023-02-17T00:08:50.552Z,88.12
2023-02-17T00:09:50.542Z,87.91
2023-02-17T00:10:50.552Z,88.43
2023-02-17T00:11:50.625Z,87.85
2023-02-17T00:12:50.522Z,88.64
2023-02-17T00:13:50.515Z,88.84
2023-02-17T00:14:50.485Z,88.64
2023-02-17T00:15:50.522Z,88.12
2023-02-17T00:16:50.644Z,88.12
2023-02-17T00:17:50.473Z,89.04
2023-02-17T00:18:50.449Z,89.15
2023-02-17T00:19:50.458Z,88.64
2023-02-17T00:20:50.464Z,88.64
2023-02-17T00:21:50.445Z,89.25
2023-02-17T00:22:50.412Z,89.36
2023-02-17T00:23:50.416Z,89.04
2023-02-17T00:24:50.398Z,88.94
2023-02-17T00:25:50.489Z,89.04
2023-02-17T00:26:50.375Z,89.15
2023-02-17T00:27:50.343Z,88.84
2023-02-17T00:28:50.367Z,89.36
2023-02-17T00:29:50.372Z,89.04
2023-02-17T00:30:50.398Z,89.04
2023-02-17T00:31:50.404Z,88.74
2023-02-17T00:32:50.303Z,89.04
2023-02-17T00:33:50.331Z,88.94
2023-02-17T00:34:50.270Z,88.94
2023-02-17T00:35:50.312Z,87.81
2023-02-17T00:36:50.242Z,89.25
2023-02-17T00:37:50.233Z,89.25
2023-02-17T00:38:50.285Z,88.74
2023-02-17T00:39:50.227Z,88.74
2023-02-17T00:40:50.247Z,88.64
2023-02-17T00:41:50.232Z,88.84
2023-02-17T00:42:50.182Z,88.39
2023-02-17T00:43:50.165Z,88.07
2023-02-17T00:44:50.167Z,87.97
2023-02-17T00:45:50.172Z,87.66
2023-02-17T00:46:50.204Z,87.18
2023-02-17T00:47:50.150Z,87.35
2023-02-17T00:48:50.192Z,87.66
2023-02-17T00:49:50.155Z,87.56
2023-02-17T00:50:50.093Z,86.42
2023-02-17T00:51:50.075Z,86.73
2023-02-17T00:52:50.114Z,86.32
2023-02-17T00:53:50.087Z,86.21
2023-02-17T00:54:50.063Z,87.04
2023-02-17T00:55:50.045Z,87.04
2023-02-17T00:56:50.049Z,86.83
2023-02-17T00:57:50.019Z,86.18
2023-02-17T00:58:50.012Z,86.90
2023-02-17T00:59:49.999Z,85.66
2023-02-17T01:00:50.002Z,86.18
2023-02-17T01:01:50.042Z,86.38
2023-02-17T01:02:49.994Z,85.04
2023-02-17T01:03:49.973Z,85.14
2023-02-17T01:04:49.980Z,85.04
2023-02-17T01:05:49.938Z,85.66
2023-02-17T01:06:49.925Z,85.62
2023-02-17T01:07:49.933Z,85.31
2023-02-17T01:08:49.890Z,85.31
2023-02-17T01:09:49.893Z,85.31
2023-02-17T01:10:49.862Z,85.62
2023-02-17T01:11:49.863Z,85.21
2023-02-17T01:12:49.907Z,85.04
2023-02-17T01:13:49.876Z,85.00
2023-02-17T01:14:49.826Z,85.10
2023-02-17T01:15:49.918Z,85.62
2023-02-17T01:16:49.794Z,85.72
2023-02-17T01:17:49.789Z,85.31
2023-02-17T01:18:49.795Z,85.10
2023-02-17T01:19:49.859Z,85.41
2023-02-17T01:20:49.765Z,84.94
2023-02-17T01:21:49.764Z,85.41
2023-02-17T01:22:49.736Z,84.94
2023-02-17T01:23:49.722Z,85.66
2023-02-17T01:24:49.744Z,85.86
2023-02-17T01:25:49.717Z,86.18
2023-02-17T01:26:49.708Z,86.69
2023-02-17T01:27:49.697Z,86.69
2023-02-17T01:28:49.660Z,85.76
2023-02-17T01:29:49.682Z,85.76
2023-02-17T01:30:49.852Z,84.52
2023-02-17T01:31:49.743Z,84.63
2023-02-17T01:32:49.638Z,83.70
2023-02-17T01:33:49.622Z,83.49
2023-02-17T01:34:49.596Z,83.49
2023-02-17T01:35:49.588Z,84.17
2023-02-17T01:36:49.572Z,84.00
2023-02-17T01:37:49.604Z,83.86
2023-02-17T01:38:49.574Z,84.38
2023-02-17T01:39:49.584Z,83.97
2023-02-17T01:40:49.524Z,83.14
2023-02-17T01:41:49.533Z,83.65
2023-02-17T01:42:49.523Z,83.34
2023-02-17T01:43:49.538Z,82.42
2023-02-17T01:44:49.478Z,83.14
2023-02-17T01:45:49.507Z,83.86
2023-02-17T01:46:49.665Z,82.69
2023-02-17T01:47:49.446Z,83.31
2023-02-17T01:48:49.441Z,83.31
2023-02-17T01:49:49.464Z,83.00
2023-02-17T01:50:49.409Z,82.69
2023-02-17T01:51:49.454Z,82.03
2023-02-17T01:52:49.386Z,81.72
2023-02-17T01:53:49.394Z,82.45
2023-02-17T01:54:49.379Z,81.82
2023-02-17T01:55:49.375Z,82.34
2023-02-17T01:56:49.382Z,81.51
2023-02-17T01:57:49.357Z,81.72
2023-02-17T01:58:49.623Z,82.24
2023-02-17T01:59:49.320Z,81.82
2023-02-17T02:00:49.314Z,81.31
2023-02-17T02:01:49.394Z,81.62
2023-02-17T02:02:49.438Z,81.48
2023-02-17T02:03:49.294Z,81.89
2023-02-17T02:04:49.279Z,81.51
2023-02-17T02:05:49.257Z,81.48
2023-02-17T02:06:49.253Z,81.07
2023-02-17T02:07:49.269Z,81.68
2023-02-17T02:08:49.204Z,80.96
2023-02-17T02:09:49.224Z,81.58
2023-02-17T02:10:49.183Z,80.96
2023-02-17T02:11:49.187Z,81.27
2023-02-17T02:12:49.177Z,81.48
2023-02-17T02:13:49.188Z,81.07
2023-02-17T02:14:49.139Z,80.86
2023-02-17T02:15:49.165Z,81.99
2023-02-17T02:16:49.121Z,81.17
2023-02-17T02:17:49.127Z,81.07
2023-02-17T02:18:49.120Z,81.17
2023-02-17T02:19:49.106Z,81.48
2023-02-17T02:20:49.075Z,81.58
2023-02-17T02:21:49.091Z,81.27
2023-02-17T02:22:49.113Z,81.58
2023-02-17T02:23:49.079Z,81.79
2023-02-17T02:24:49.030Z,80.76
2023-02-17T02:25:49.039Z,80.86
2023-02-17T02:26:49.094Z,81.27
2023-02-17T02:27:48.997Z,81.27
2023-02-17T02:28:49.040Z,81.27
2023-02-17T02:29:48.991Z,80.72
2023-02-17T02:30:49.021Z,81.44
2023-02-17T02:31:49.067Z,81.58
2023-02-17T02:32:48.957Z,81.27
2023-02-17T02:33:48.932Z,81.27
2023-02-17T02:34:48.940Z,81.58
2023-02-17T02:35:48.953Z,81.58
2023-02-17T02:36:48.906Z,81.27
2023-02-17T02:37:48.907Z,81.07
2023-02-17T02:38:48.885Z,81.27
2023-02-17T02:39:48.921Z,81.27
2023-02-17T02:40:48.862Z,81.27
2023-02-17T02:41:48.861Z,80.86
2023-02-17T02:42:48.829Z,80.55
2023-02-17T02:43:48.863Z,80.55
2023-02-17T02:44:48.874Z,80.62
2023-02-17T02:45:49.072Z,80.62
2023-02-17T02:46:48.784Z,80.44
2023-02-17T02:47:48.801Z,80.51
2023-02-17T02:48:48.762Z,80.41
2023-02-17T02:49:48.776Z,80.20
2023-02-17T02:50:48.765Z,80.41
2023-02-17T02:51:48.766Z,79.75
2023-02-17T02:52:48.747Z,79.75
2023-02-17T02:53:48.752Z,79.55
2023-02-17T02:54:48.760Z,79.44
2023-02-17T02:55:48.708Z,79.34
2023-02-17T02:56:48.708Z,79.34
2023-02-17T02:57:48.685Z,79.24
2023-02-17T02:58:48.677Z,78.93
2023-02-17T02:59:48.639Z,79.14
2023-02-17T03:00:48.709Z,78.79
2023-02-17T03:01:48.636Z,79.14
2023-02-17T03:02:48.619Z,78.89
2023-02-17T03:03:48.644Z,79.30
2023-02-17T03:04:48.640Z,78.79
2023-02-17T03:05:48.567Z,78.89
2023-02-17T03:06:48.586Z,78.89
2023-02-17T03:07:48.573Z,78.55
2023-02-17T03:08:48.563Z,78.14
2023-02-17T03:09:48.547Z,78.03
2023-02-17T03:10:48.518Z,78.44
2023-02-17T03:11:48.620Z,78.14
2023-02-17T03:12:48.518Z,78.55
2023-02-17T03:13:48.523Z,78.24
2023-02-17T03:14:48.483Z,78.03
2023-02-17T03:15:48.492Z,77.83
2023-02-17T03:16:48.485Z,77.83
2023-02-17T03:17:48.439Z,78.20
2023-02-17T03:18:48.461Z,77.89
2023-02-17T03:19:48.424Z,77.48
2023-02-17T03:20:48.409Z,77.38
2023-02-17T03:21:48.432Z,76.76
2023-02-17T03:22:48.439Z,78.10
2023-02-17T03:23:48.381Z,76.97
2023-02-17T03:24:48.359Z,76.97
2023-02-17T03:25:48.351Z,76.14
2023-02-17T03:26:48.387Z,76.76
2023-02-17T03:27:48.341Z,76.97
2023-02-17T03:28:48.330Z,76.01
2023-02-17T03:29:48.332Z,76.31
2023-02-17T03:30:48.297Z,76.01
2023-02-17T03:31:48.404Z,76.11
2023-02-17T03:32:48.304Z,76.42
2023-02-17T03:33:48.267Z,76.01
2023-02-17T03:34:48.416Z,75.90
2023-02-17T03:35:48.232Z,76.31
2023-02-17T03:36:48.258Z,76.31
2023-02-17T03:37:48.208Z,75.90
2023-02-17T03:38:48.237Z,76.01
2023-02-17T03:39:48.204Z,75.08
2023-02-17T03:40:48.196Z,75.49
2023-02-17T03:41:48.166Z,75.18
2023-02-17T03:42:48.172Z,75.80
2023-02-17T03:43:48.183Z,75.56
2023-02-17T03:44:48.132Z,75.70
2023-02-17T03:45:48.176Z,75.35
2023-02-17T03:46:48.118Z,75.67
2023-02-17T03:47:48.136Z,75.08
2023-02-17T03:48:48.099Z,75.70
2023-02-17T03:49:48.118Z,75.59
2023-02-17T03:50:48.061Z,74.84
2023-02-17T03:51:48.053Z,74.98
2023-02-17T03:52:48.068Z,75.67
2023-02-17T03:53:48.073Z,75.49
2023-02-17T03:54:48.014Z,74.46
2023-02-17T03:55:48.000Z,74.36
2023-02-17T03:56:47.990Z,74.84
2023-02-17T03:57:48.017Z,74.57
2023-02-17T03:58:47.981Z,74.12
2023-02-17T03:59:48.006Z,74.15
2023-02-17T04:00:47.972Z,74.33
2023-02-17T04:01:47.990Z,74.43
2023-02-17T04:02:48.166Z,73.61
2023-02-17T04:03:47.953Z,73.40
2023-02-17T04:04:47.910Z,73.50
2023-02-17T04:05:47.909Z,73.30
2023-02-17T04:06:47.908Z,72.68
2023-02-17T04:07:47.879Z,72.58
2023-02-17T04:08:47.858Z,72.68
2023-02-17T04:09:47.842Z,71.96
2023-02-17T04:10:47.852Z,72.27
2023-02-17T04:11:47.837Z,72.47
2023-02-17T04:12:47.808Z,72.27
2023-02-17T04:13:47.882Z,72.68
2023-02-17T04:14:47.811Z,72.47
2023-02-17T04:15:47.808Z,72.89
2023-02-17T04:16:47.781Z,72.58
2023-02-17T04:17:47.771Z,72.78
2023-02-17T04:18:47.742Z,72.58
2023-02-17T04:19:47.835Z,72.99
2023-02-17T04:20:47.778Z,74.12
2023-02-17T04:21:47.723Z,72.99
2023-02-17T04:22:47.715Z,72.99
2023-02-17T04:23:47.683Z,72.81
2023-02-17T04:24:47.678Z,74.43
2023-02-17T04:25:48.155Z,73.71
2023-02-17T04:26:47.704Z,73.74
2023-02-17T04:27:47.658Z,73.64
2023-02-17T04:28:47.625Z,73.95
2023-02-17T04:29:47.624Z,73.71
2023-02-17T04:30:47.660Z,73.95
2023-02-17T04:31:47.780Z,74.26
2023-02-17T04:32:47.608Z,73.71
2023-02-17T04:33:47.592Z,73.13
2023-02-17T04:34:47.592Z,73.54
2023-02-17T04:35:47.587Z,73.54
2023-02-17T04:36:47.568Z,73.23
2023-02-17T04:37:47.523Z,73.44
2023-02-17T04:38:47.548Z,72.81
2023-02-17T04:39:47.537Z,72.61
2023-02-17T04:40:47.525Z,72.99
2023-02-17T04:41:47.498Z,72.92
2023-02-17T04:42:47.474Z,73.02
2023-02-17T04:43:47.455Z,72.30
2023-02-17T04:44:47.477Z,72.51
2023-02-17T04:45:47.456Z,73.33
2023-02-17T04:46:47.459Z,72.20
2023-02-17T04:47:47.411Z,72.17
2023-02-17T04:48:47.410Z,72.09
2023-02-17T04:49:47.413Z,71.66
2023-02-17T04:50:47.416Z,72.06
2023-02-17T04:51:47.398Z,72.06
2023-02-17T04:52:47.353Z,71.66
2023-02-17T04:53:47.343Z,71.75
2023-02-17T04:54:47.332Z,71.55
2023-02-17T04:55:47.354Z,71.66
2023-02-17T04:56:47.347Z,71.66
2023-02-17T04:57:47.313Z,71.24
2023-02-17T04:58:47.285Z,70.62
2023-02-17T04:59:47.280Z,71.14
2023-02-17T05:00:47.306Z,71.21
2023-02-17T05:01:47.343Z,70.94
2023-02-17T05:02:47.250Z,70.49
2023-02-17T05:03:47.230Z,70.39
2023-02-17T05:04:47.307Z,70.28
2023-02-17T05:05:47.245Z,69.98
2023-02-17T05:06:47.241Z,69.94
2023-02-17T05:07:47.206Z,70.36
2023-02-17T05:08:47.172Z,70.36
2023-02-17T05:09:47.174Z,70.39
2023-02-17T05:10:47.159Z,70.66
2023-02-17T05:11:47.139Z,70.28
2023-02-17T05:12:47.184Z,70.36
2023-02-17T05:13:47.113Z,70.66
2023-02-17T05:14:47.106Z,70.25
2023-02-17T05:15:47.104Z,70.25
2023-02-17T05:16:47.113Z,70.15
2023-02-17T05:17:47.078Z,70.04
2023-02-17T05:18:47.102Z,70.25
2023-02-17T05:19:47.083Z,70.36
2023-02-17T05:20:47.060Z,70.56
2023-02-17T05:21:47.041Z,70.56
2023-02-17T05:22:47.045Z,70.87
2023-02-17T05:23:47.053Z,70.79
2023-02-17T05:24:47.027Z,70.59
2023-02-17T05:25:46.981Z,71.28
2023-02-17T05:26:46.977Z,71.69
2023-02-17T05:27:46.955Z,70.87
2023-02-17T05:28:46.951Z,70.46
2023-02-17T05:29:46.959Z,70.76
2023-02-17T05:30:46.985Z,71.17
2023-02-17T05:31:47.000Z,71.17
2023-02-17T05:32:46.935Z,71.48
2023-02-17T05:33:46.897Z,71.48
2023-02-17T05:34:46.890Z,71.89
2023-02-17T05:35:46.886Z,71.38
2023-02-17T05:36:46.890Z,71.48
2023-02-17T05:37:46.862Z,71.41
2023-02-17T05:38:46.870Z,71.38
2023-02-17T05:39:46.842Z,71.59
2023-02-17T05:40:46.828Z,71.41
2023-02-17T05:41:46.828Z,71.38
2023-02-17T05:42:46.848Z,71.69
2023-02-17T05:43:46.796Z,71.72
2023-02-17T05:44:46.773Z,71.48
2023-02-17T05:45:46.756Z,71.48
2023-02-17T05:46:46.808Z,71.69
2023-02-17T05:47:46.733Z,71.69
2023-02-17T05:48:46.783Z,72.10
2023-02-17T05:49:46.715Z,72.41
2023-02-17T05:50:46.715Z,71.89
2023-02-17T05:51:46.710Z,72.00
2023-02-17T05:52:46.697Z,72.10
2023-02-17T05:53:46.680Z,72.41
2023-02-17T05:54:46.673Z,72.10
2023-02-17T05:55:48.782Z,72.10
2023-02-17T05:56:46.634Z,72.31
2023-02-17T05:57:46.663Z,72.78
2023-02-17T05:58:46.626Z,72.51
2023-02-17T05:59:46.597Z,72.61
2023-02-17T06:00:46.589Z,72.51
2023-02-17T06:01:46.586Z,72.41
2023-02-17T06:02:46.647Z,72.48
2023-02-17T06:03:46.570Z,72.68
2023-02-17T06:04:46.718Z,72.58
2023-02-17T06:05:46.546Z,72.58
2023-02-17T06:06:46.527Z,72.38
2023-02-17T06:07:46.526Z,72.27
2023-02-17T06:08:46.513Z,72.58
2023-02-17T06:09:47.357Z,72.58
2023-02-17T06:10:46.519Z,72.58
2023-02-17T06:11:46.484Z,73.10
2023-02-17T06:12:46.562Z,72.99
2023-02-17T06:13:46.476Z,72.68
2023-02-17T06:14:46.445Z,72.38
2023-02-17T06:15:46.505Z,72.99
2023-02-17T06:16:46.409Z,72.48
2023-02-17T06:17:46.398Z,72.68
2023-02-17T06:18:46.434Z,72.85
2023-02-17T06:19:46.377Z,72.78
2023-02-17T06:20:46.374Z,72.65
2023-02-17T06:21:46.408Z,72.96
2023-02-17T06:22:46.352Z,73.57
2023-02-17T06:23:46.330Z,73.47
2023-02-17T06:24:46.354Z,74.08
2023-02-17T06:25:46.340Z,74.08
2023-02-17T06:26:46.328Z,74.40
2023-02-17T06:27:46.329Z,74.80
2023-02-17T06:28:46.276Z,74.49
2023-02-17T06:29:46.302Z,74.49
2023-02-17T06:30:46.249Z,74.74
2023-02-17T06:31:46.377Z,74.60
2023-02-17T06:32:46.250Z,74.63
2023-02-17T06:33:46.213Z,75.32
2023-02-17T06:34:46.213Z,75.42
2023-02-17T06:35:46.236Z,75.32
2023-02-17T06:36:46.182Z,75.35
2023-02-17T06:37:46.175Z,74.53
2023-02-17T06:38:46.195Z,75.66
2023-02-17T06:39:46.205Z,75.87
2023-02-17T06:40:46.144Z,75.15
2023-02-17T06:41:46.143Z,75.66
2023-02-17T06:42:46.141Z,75.66
2023-02-17T06:43:46.119Z,75.66
2023-02-17T06:44:46.090Z,75.76
2023-02-17T06:45:46.145Z,75.76
2023-02-17T06:46:46.083Z,75.66
2023-02-17T06:47:46.057Z,75.97
2023-02-17T06:48:46.096Z,75.87
2023-02-17T06:49:46.096Z,75.76
2023-02-17T06:50:46.028Z,75.76
2023-02-17T06:51:46.014Z,75.87
2023-02-17T06:52:46.006Z,75.97
2023-02-17T06:53:46.001Z,75.97
2023-02-17T06:54:46.000Z,76.28
2023-02-17T06:55:45.999Z,75.97
2023-02-17T06:56:45.952Z,76.28
2023-02-17T06:57:45.956Z,76.48
2023-02-17T06:58:45.944Z,76.07
2023-02-17T06:59:45.937Z,76.28
2023-02-17T07:00:45.951Z,76.38
2023-02-17T07:01:45.990Z,76.17
2023-02-17T07:02:46.038Z,76.48
2023-02-17T07:03:45.879Z,76.38
2023-02-17T07:04:45.870Z,76.58
2023-02-17T07:05:45.899Z,76.58
2023-02-17T07:06:45.864Z,76.07
2023-02-17T07:07:45.839Z,76.17
2023-02-17T07:08:45.819Z,76.38
2023-02-17T07:09:45.835Z,76.38
2023-02-17T07:10:45.853Z,76.58
2023-02-17T07:11:45.815Z,76.38
2023-02-17T07:12:45.773Z,76.48
2023-02-17T07:13:45.787Z,76.48
2023-02-17T07:14:45.757Z,76.38
2023-02-17T07:15:45.760Z,76.58
2023-02-17T07:16:45.847Z,76.28
2023-02-17T07:17:45.751Z,76.07
2023-02-17T07:18:45.716Z,75.87
2023-02-17T07:19:45.758Z,75.83
2023-02-17T07:20:45.687Z,75.83
2023-02-17T07:21:45.681Z,75.73
2023-02-17T07:22:45.680Z,75.83
2023-02-17T07:23:45.687Z,75.83
2023-02-17T07:24:45.642Z,75.83
2023-02-17T07:25:45.649Z,75.01
2023-02-17T07:26:45.642Z,75.01
2023-02-17T07:27:45.622Z,75.42
2023-02-17T07:28:45.623Z,75.21
2023-02-17T07:29:45.638Z,75.08
2023-02-17T07:30:45.612Z,74.98
2023-02-17T07:31:45.623Z,75.08
2023-02-17T07:32:45.571Z,75.49
2023-02-17T07:33:45.568Z,75.49
2023-02-17T07:34:45.530Z,75.49
2023-02-17T07:35:45.578Z,75.28
2023-02-17T07:36:45.503Z,74.66
2023-02-17T07:37:45.506Z,75.38
2023-02-17T07:38:45.517Z,75.38
2023-02-17T07:39:45.483Z,74.87
2023-02-17T07:40:53.551Z,75.69
2023-02-17T07:41:45.448Z,74.77
2023-02-17T07:42:45.441Z,75.08
2023-02-17T07:43:45.455Z,74.57
2023-02-17T07:44:45.428Z,74.57
2023-02-17T07:45:45.454Z,74.36
2023-02-17T07:46:45.398Z,74.36
2023-02-17T07:47:45.387Z,74.77
2023-02-17T07:48:45.398Z,74.46
2023-02-17T07:49:45.400Z,73.81
2023-02-17T07:50:45.373Z,74.94
2023-02-17T07:51:45.379Z,74.02
2023-02-17T07:52:45.325Z,74.43
2023-02-17T07:53:45.343Z,73.81
2023-02-17T07:54:45.299Z,74.02
2023-02-17T07:55:45.302Z,73.19
2023-02-17T07:56:45.274Z,74.12
2023-02-17T07:57:45.306Z,73.40
2023-02-17T07:58:45.271Z,73.30
2023-02-17T07:59:45.249Z,73.40
2023-02-17T08:00:45.241Z,72.58
2023-02-17T08:01:45.271Z,73.27
2023-02-17T08:02:45.213Z,73.47
2023-02-17T08:03:45.209Z,73.36
2023-02-17T08:04:45.212Z,72.96
2023-02-17T08:05:45.951Z,73.36
2023-02-17T08:06:45.173Z,72.65
2023-02-17T08:07:45.194Z,72.86
2023-02-17T08:08:45.170Z,72.86
2023-02-17T08:09:45.139Z,72.82
2023-02-17T08:10:45.211Z,72.65
2023-02-17T08:11:47.168Z,72.72
2023-02-17T08:12:45.101Z,72.61
2023-02-17T08:13:45.091Z,72.41
2023-02-17T08:14:45.069Z,72.20
2023-02-17T08:15:45.063Z,72.20
2023-02-17T08:16:45.159Z,71.36
2023-02-17T08:17:45.060Z,71.36
2023-02-17T08:18:45.052Z,71.66
2023-02-17T08:19:49.344Z,71.97
2023-02-17T08:20:45.003Z,71.66
2023-02-17T08:21:44.994Z,71.86
2023-02-17T08:22:45.009Z,71.36
2023-02-17T08:23:45.483Z,71.73
2023-02-17T08:24:45.174Z,71.94
2023-02-17T08:25:44.952Z,71.62
2023-02-17T08:26:44.965Z,71.22
2023-02-17T08:27:44.946Z,71.22
2023-02-17T08:28:44.980Z,71.12
2023-02-17T08:29:44.950Z,71.12
2023-02-17T08:30:44.986Z,71.19
2023-02-17T08:31:44.991Z,71.53
2023-02-17T08:32:44.887Z,71.39
2023-02-17T08:33:44.883Z,71.39
2023-02-17T08:34:44.909Z,71.08
2023-02-17T08:35:44.902Z,71.08
2023-02-17T08:36:44.825Z,71.59
2023-02-17T08:37:44.838Z,71.80
2023-02-17T08:38:44.817Z,71.08
2023-02-17T08:39:44.801Z,71.42
2023-02-17T08:40:45.025Z,71.80
2023-02-17T08:41:44.783Z,71.83
2023-02-17T08:42:44.844Z,71.19
2023-02-17T08:43:44.745Z,71.59
2023-02-17T08:44:44.762Z,71.83
2023-02-17T08:45:44.725Z,72.14
2023-02-17T08:46:44.813Z,71.83
2023-02-17T08:47:44.872Z,71.62
2023-02-17T08:48:44.708Z,71.94
2023-02-17T08:49:44.698Z,72.24
2023-02-17T08:50:44.847Z,72.45
2023-02-17T08:51:44.695Z,72.04
2023-02-17T08:52:44.696Z,72.65
2023-02-17T08:53:44.773Z,72.65
2023-02-17T08:54:44.645Z,72.65
2023-02-17T08:55:49.419Z,72.65
2023-02-17T08:56:45.711Z,73.27
2023-02-17T08:57:44.674Z,72.24
2023-02-17T08:58:44.658Z,72.55
2023-02-17T08:59:44.591Z,72.45
2023-02-17T09:00:44.596Z,72.55
2023-02-17T09:01:44.654Z,72.65
2023-02-17T09:02:44.620Z,73.27
2023-02-17T09:03:44.560Z,73.27
2023-02-17T09:04:44.616Z,73.78
2023-02-17T09:05:44.535Z,74.19
2023-02-17T09:06:44.516Z,73.57
2023-02-17T09:07:44.548Z,74.08
2023-02-17T09:08:44.573Z,74.19
2023-02-17T09:09:44.491Z,74.69
2023-02-17T09:10:44.499Z,74.60
2023-02-17T09:11:44.434Z,74.49
2023-02-17T09:12:44.502Z,75.01
2023-02-17T09:13:44.418Z,74.56
2023-02-17T09:14:44.439Z,75.07
2023-02-17T09:15:44.476Z,75.59
2023-02-17T09:16:44.374Z,74.76
2023-02-17T09:17:44.389Z,74.87
2023-02-17T09:18:44.366Z,74.76
2023-02-17T09:19:44.410Z,75.38
2023-02-17T09:20:44.354Z,74.97
2023-02-17T09:21:44.352Z,74.87
2023-02-17T09:22:44.340Z,75.07
2023-02-17T09:23:44.346Z,74.66
2023-02-17T09:24:44.349Z,75.59
2023-02-17T09:25:44.330Z,75.27
2023-02-17T09:26:44.278Z,75.48
2023-02-17T09:27:44.268Z,75.79
2023-02-17T09:28:44.242Z,76.34
2023-02-17T09:29:44.317Z,75.82
2023-02-17T09:30:44.425Z,76.34
2023-02-17T09:31:44.379Z,75.82
2023-02-17T09:32:44.250Z,75.72
2023-02-17T09:33:44.185Z,76.13
2023-02-17T09:34:44.217Z,76.34
2023-02-17T09:35:44.211Z,76.23
2023-02-17T09:36:44.209Z,76.34
2023-02-17T09:37:44.242Z,76.84
2023-02-17T09:38:44.127Z,76.23
2023-02-17T09:39:44.145Z,76.13
2023-02-17T09:40:44.144Z,76.09
2023-02-17T09:41:44.174Z,76.09
2023-02-17T09:42:44.103Z,75.48
2023-02-17T09:43:44.135Z,75.48
2023-02-17T09:44:44.135Z,75.68
2023-02-17T09:45:44.101Z,75.89
2023-02-17T09:46:56.025Z,75.99
2023-02-17T09:47:45.067Z,75.48
2023-02-17T09:48:44.035Z,75.38
2023-02-17T09:49:44.051Z,75.07
2023-02-17T09:50:44.059Z,75.48
2023-02-17T09:51:43.994Z,75.89
2023-02-17T09:52:44.006Z,76.30
2023-02-17T09:53:44.105Z,76.20
2023-02-17T09:54:43.988Z,76.20
2023-02-17T09:55:44.003Z,75.55
2023-02-17T09:56:43.967Z,75.55
2023-02-17T09:57:43.935Z,75.55
2023-02-17T09:58:43.925Z,74.73
2023-02-17T09:59:43.973Z,75.04
2023-02-17T10:00:43.895Z,74.80
2023-02-17T10:01:43.873Z,75.00
2023-02-17T10:02:43.926Z,74.08
2023-02-17T10:03:44.019Z,74.59
2023-02-17T10:04:43.906Z,74.18
2023-02-17T10:05:43.850Z,74.35
2023-02-17T10:06:43.819Z,74.05
2023-02-17T10:07:44.006Z,73.23
2023-02-17T10:08:43.817Z,73.03
2023-02-17T10:09:43.915Z,73.03
2023-02-17T10:10:43.786Z,73.84
2023-02-17T10:11:43.875Z,73.91
2023-02-17T10:12:43.822Z,73.40
2023-02-17T10:13:43.797Z,72.48
2023-02-17T10:14:43.726Z,72.28
2023-02-17T10:15:43.776Z,72.69
2023-02-17T10:16:43.920Z,73.30
2023-02-17T10:17:43.726Z,72.58
2023-02-17T10:18:43.698Z,72.24
2023-02-17T10:19:43.686Z,72.34
2023-02-17T10:20:43.733Z,72.24
2023-02-17T10:21:43.675Z,71.84
2023-02-17T10:22:43.716Z,71.73
2023-02-17T10:23:43.642Z,71.53
2023-02-17T10:24:43.626Z,71.60
2023-02-17T10:25:43.700Z,71.29
2023-02-17T10:26:45.245Z,71.39
2023-02-17T10:27:43.631Z,71.19
2023-02-17T10:28:43.686Z,71.50
2023-02-17T10:29:43.566Z,70.68
2023-02-17T10:30:43.778Z,70.89
2023-02-17T10:31:43.726Z,70.75
2023-02-17T10:32:43.673Z,70.78
2023-02-17T10:33:43.583Z,70.68
2023-02-17T10:34:43.496Z,70.85
2023-02-17T10:35:43.482Z,70.85
2023-02-17T10:36:43.570Z,70.34
2023-02-17T10:37:43.491Z,69.22
2023-02-17T10:38:43.482Z,69.32
2023-02-17T10:39:43.460Z,69.80
2023-02-17T10:40:43.447Z,70.00
2023-02-17T10:41:43.432Z,68.85
2023-02-17T10:42:43.411Z,68.48
2023-02-17T10:43:43.416Z,68.57
2023-02-17T10:44:43.419Z,69.09
2023-02-17T10:45:43.399Z,69.26
2023-02-17T10:46:43.415Z,69.36
2023-02-17T10:47:43.373Z,69.36
2023-02-17T10:48:43.362Z,68.75
2023-02-17T10:49:43.340Z,69.02
2023-02-17T10:50:43.328Z,69.43
2023-02-17T10:51:43.306Z,68.21
2023-02-17T10:52:43.309Z,68.58
2023-02-17T10:53:43.316Z,67.97
2023-02-17T10:54:43.276Z,68.48
2023-02-17T10:55:43.277Z,67.36
2023-02-17T10:56:43.274Z,68.10
2023-02-17T10:57:43.267Z,68.27
2023-02-17T10:58:43.243Z,68.38
2023-02-17T10:59:43.216Z,68.07
2023-02-17T11:00:43.309Z,67.87
2023-02-17T11:01:43.203Z,67.97
2023-02-17T11:02:43.192Z,67.66
2023-02-17T11:03:43.259Z,68.18
2023-02-17T11:04:43.163Z,68.07
2023-02-17T11:05:43.176Z,67.66
2023-02-17T11:06:43.147Z,67.87
2023-02-17T11:07:43.140Z,68.96
2023-02-17T11:08:43.162Z,67.57
2023-02-17T11:09:43.119Z,68.18
2023-02-17T11:10:43.147Z,67.36
2023-02-17T11:11:43.083Z,68.38
2023-02-17T11:12:43.089Z,68.79
2023-02-17T11:13:43.278Z,68.27
2023-02-17T11:14:43.048Z,68.58
2023-02-17T11:15:43.052Z,67.97
2023-02-17T11:16:43.119Z,68.79
2023-02-17T11:17:43.033Z,68.48
2023-02-17T11:18:43.017Z,69.19
2023-02-17T11:19:43.034Z,69.60
2023-02-17T11:20:42.980Z,69.80
2023-02-17T11:21:42.972Z,68.88
2023-02-17T11:22:42.983Z,68.27
2023-02-17T11:23:42.962Z,68.68
2023-02-17T11:24:42.951Z,69.09
2023-02-17T11:25:42.926Z,69.09
2023-02-17T11:26:42.937Z,69.29
2023-02-17T11:27:42.907Z,68.99
2023-02-17T11:28:42.929Z,69.09
2023-02-17T11:29:42.929Z,68.88
2023-02-17T11:30:42.869Z,69.19
2023-02-17T11:31:42.992Z,69.70
2023-02-17T11:32:42.854Z,69.49
2023-02-17T11:33:42.843Z,69.53
2023-02-17T11:34:42.854Z,69.90
2023-02-17T11:35:42.832Z,70.51
2023-02-17T11:36:42.804Z,69.90
2023-02-17T11:37:42.794Z,70.01
2023-02-17T11:38:42.788Z,69.49
2023-02-17T11:39:42.797Z,69.40
2023-02-17T11:40:42.774Z,70.10
2023-02-17T11:41:42.781Z,70.01
2023-02-17T11:42:42.738Z,70.01
2023-02-17T11:43:42.744Z,70.31
2023-02-17T11:44:42.726Z,70.62
2023-02-17T11:45:42.738Z,70.82
2023-02-17T11:46:42.711Z,69.60
2023-02-17T11:47:42.680Z,70.10
2023-02-17T11:48:42.689Z,70.51
2023-02-17T11:49:42.656Z,70.21
2023-02-17T11:50:42.761Z,70.41
2023-02-17T11:51:42.660Z,70.41
2023-02-17T11:52:42.642Z,70.62
2023-02-17T11:53:42.612Z,70.68
2023-02-17T11:54:42.605Z,70.48
2023-02-17T11:55:42.614Z,69.90
2023-02-17T11:56:42.585Z,70.58
2023-02-17T11:57:45.304Z,70.07
2023-02-17T11:58:42.578Z,70.58
2023-02-17T11:59:42.542Z,70.79
2023-02-17T12:00:42.547Z,71.33
2023-02-17T12:01:42.548Z,71.09
2023-02-17T12:02:42.513Z,70.79
2023-02-17T12:03:42.521Z,70.48
2023-02-17T12:04:42.520Z,70.51
2023-02-17T12:05:42.485Z,70.89
2023-02-17T12:06:42.472Z,70.38
2023-02-17T12:07:42.478Z,70.58
2023-02-17T12:08:42.453Z,70.51
2023-02-17T12:09:42.425Z,70.38
2023-02-17T12:10:42.416Z,71.40
2023-02-17T12:11:42.402Z,70.79
2023-02-17T12:12:42.394Z,70.79
2023-02-17T12:13:42.424Z,71.19
2023-02-17T12:14:42.378Z,70.58
2023-02-17T12:15:42.361Z,70.68
2023-02-17T12:16:42.399Z,70.58
2023-02-17T12:17:42.364Z,70.99
2023-02-17T12:18:42.339Z,71.23
2023-02-17T12:19:42.338Z,71.40
2023-02-17T12:20:42.329Z,72.21
2023-02-17T12:21:42.447Z,72.92
2023-02-17T12:22:42.282Z,73.63
2023-02-17T12:23:42.268Z,74.58
2023-02-17T12:24:42.283Z,74.76
2023-02-17T12:25:42.250Z,73.94
2023-02-17T12:26:42.234Z,74.58
2023-02-17T12:27:42.223Z,72.96
2023-02-17T12:28:42.228Z,72.72
2023-02-17T12:29:42.228Z,71.40
2023-02-17T12:30:42.414Z,71.94
2023-02-17T12:31:42.338Z,72.31
2023-02-17T12:32:42.198Z,72.21
2023-02-17T12:33:42.185Z,71.73
2023-02-17T12:34:42.171Z,71.64
2023-02-17T12:35:42.159Z,71.91
2023-02-17T12:36:42.136Z,71.64
2023-02-17T12:37:42.109Z,71.33
2023-02-17T12:38:42.118Z,71.33
2023-02-17T12:39:42.085Z,71.43
2023-02-17T12:40:42.105Z,71.70
2023-02-17T12:41:42.088Z,71.40
2023-02-17T12:42:42.085Z,71.50
2023-02-17T12:43:42.041Z,71.30
2023-02-17T12:44:42.096Z,70.89
2023-02-17T12:45:42.037Z,71.09
2023-02-17T12:46:42.034Z,71.19
2023-02-17T12:47:42.014Z,71.30
2023-02-17T12:48:42.017Z,71.60
2023-02-17T12:49:41.990Z,71.30
2023-02-17T12:50:41.964Z,71.19
2023-02-17T12:51:41.963Z,71.30
2023-02-17T12:52:41.955Z,71.19